Terminal Aerodrome Forecast
Issued by NWS

Home | Current Version | Previous Version | Text Only | Print | Product List | Glossary On
Versions: 1 2 3 4 5 6 7 8 9 10 11 12 13
000
FTUS42 KMLB 231700
TAFISM
TAF
KISM 231739Z 2318/2418 27006KT P6SM FEW040
     FM240200 VRB02KT P6SM SKC
      TEMPO 2410/2412 5SM BR FEW015
     FM241500 15005KT P6SM FEW040=

USA.gov is the U.S. government's official web portal to all federal, state and local government web resources and services.